createdAt,value
2023-07-24T00:01:57.894Z,5.82
2023-07-24T00:04:25.256Z,6.30
2023-07-24T00:06:52.672Z,6.05
2023-07-24T00:09:20.067Z,6.13
2023-07-24T00:11:47.490Z,5.90
2023-07-24T00:14:14.899Z,6.18
2023-07-24T00:16:42.316Z,5.35
2023-07-24T00:19:09.804Z,5.75
2023-07-24T00:21:37.156Z,5.82
2023-07-24T00:24:04.658Z,6.10
2023-07-24T00:26:32.206Z,6.03
2023-07-24T00:29:01.045Z,5.95
2023-07-24T00:31:28.556Z,5.93
2023-07-24T00:33:56.001Z,5.97
2023-07-24T00:36:23.394Z,5.93
2023-07-24T00:38:50.809Z,5.65
2023-07-24T00:41:18.112Z,6.05
2023-07-24T00:43:45.566Z,6.18
2023-07-24T00:46:13.429Z,6.00
2023-07-24T00:48:42.181Z,6.07
2023-07-24T00:51:09.714Z,5.80
2023-07-24T00:53:37.161Z,5.88
2023-07-24T00:56:04.700Z,6.40
2023-07-24T00:58:32.351Z,5.93
2023-07-24T01:00:59.786Z,5.63
2023-07-24T01:03:33.142Z,5.95
2023-07-24T01:06:00.949Z,5.88
2023-07-24T01:08:28.351Z,5.45
2023-07-24T01:11:00.592Z,6.32
2023-07-24T01:13:30.131Z,6.10
2023-07-24T01:16:02.324Z,6.00
2023-07-24T01:18:30.517Z,5.68
2023-07-24T01:20:58.770Z,5.60
2023-07-24T01:23:40.038Z,5.55
2023-07-24T01:26:08.602Z,5.70
2023-07-24T01:28:35.946Z,6.22
2023-07-24T01:31:03.400Z,5.82
2023-07-24T01:33:32.764Z,5.72
2023-07-24T01:36:01.469Z,6.20
2023-07-24T01:38:29.278Z,5.90
2023-07-24T01:40:56.732Z,5.93
2023-07-24T01:43:24.620Z,5.90
2023-07-24T01:45:52.254Z,6.07
2023-07-24T01:48:19.614Z,5.97
2023-07-24T01:50:48.744Z,5.57
2023-07-24T01:53:16.404Z,6.40
2023-07-24T01:55:43.806Z,5.93
2023-07-24T01:58:11.193Z,5.35
2023-07-24T02:00:38.877Z,5.57
2023-07-24T02:03:06.882Z,5.95
2023-07-24T02:05:34.304Z,6.13
2023-07-24T02:08:01.672Z,5.63
2023-07-24T02:10:29.356Z,5.47
2023-07-24T02:12:56.725Z,6.53
2023-07-24T02:15:24.130Z,5.20
2023-07-24T02:17:51.510Z,5.97
2023-07-24T02:20:18.987Z,5.15
2023-07-24T02:22:46.381Z,5.80
2023-07-24T02:25:13.759Z,5.40
2023-07-24T02:27:41.172Z,5.72
2023-07-24T02:30:08.757Z,5.38
2023-07-24T02:32:36.850Z,5.68
2023-07-24T02:35:04.454Z,5.55
2023-07-24T02:37:32.243Z,5.78
2023-07-24T02:39:59.716Z,5.40
2023-07-24T02:42:28.565Z,6.22
2023-07-24T02:44:56.080Z,5.60
2023-07-24T02:47:23.522Z,5.20
2023-07-24T02:49:51.006Z,5.70
2023-07-24T02:52:19.007Z,5.45
2023-07-24T02:54:47.136Z,5.63
2023-07-24T02:57:14.455Z,5.38
2023-07-24T02:59:41.848Z,5.75
2023-07-24T03:02:09.212Z,5.53
2023-07-24T03:04:36.724Z,6.10
2023-07-24T03:07:04.131Z,6.07
2023-07-24T03:09:31.564Z,6.28
2023-07-24T03:11:58.907Z,5.78
2023-07-24T03:14:27.119Z,6.07
2023-07-24T03:16:54.558Z,5.85
2023-07-24T03:19:22.063Z,6.13
2023-07-24T03:21:49.424Z,6.20
2023-07-24T03:24:16.887Z,5.38
2023-07-24T03:26:45.150Z,5.53
2023-07-24T03:29:12.521Z,6.07
2023-07-24T03:31:39.943Z,6.00
2023-07-24T03:34:07.384Z,5.32
2023-07-24T03:36:36.692Z,5.65
2023-07-24T03:39:04.618Z,5.85
2023-07-24T03:41:31.969Z,5.80
2023-07-24T03:43:59.369Z,5.47
2023-07-24T03:46:27.272Z,5.50
2023-07-24T03:48:54.881Z,5.75
2023-07-24T03:51:22.272Z,6.05
2023-07-24T03:53:49.625Z,6.30
2023-07-24T03:56:17.179Z,6.03
2023-07-24T03:58:44.637Z,5.43
2023-07-24T04:01:12.023Z,5.80
2023-07-24T04:03:39.598Z,5.22
2023-07-24T04:06:07.081Z,5.75
2023-07-24T04:08:34.588Z,6.18
2023-07-24T04:11:01.929Z,5.40
2023-07-24T04:13:29.319Z,5.60
2023-07-24T04:15:58.364Z,5.82
2023-07-24T04:18:25.771Z,5.78
2023-07-24T04:20:53.243Z,5.70
2023-07-24T04:23:20.626Z,5.78
2023-07-24T04:25:47.953Z,5.97
2023-07-24T04:28:15.314Z,5.90
2023-07-24T04:30:42.732Z,6.10
2023-07-24T04:33:10.558Z,5.68
2023-07-24T04:35:37.929Z,5.97
2023-07-24T04:38:05.285Z,9.48
2023-07-24T04:40:32.857Z,5.82
2023-07-24T04:43:00.629Z,5.20
2023-07-24T04:45:28.041Z,6.00
2023-07-24T04:47:55.443Z,5.95
2023-07-24T04:50:22.887Z,6.00
2023-07-24T04:52:50.251Z,6.20
2023-07-24T04:55:17.633Z,6.15
2023-07-24T04:57:45.161Z,5.70
2023-07-24T05:00:12.745Z,6.75
2023-07-24T05:02:40.167Z,5.60
2023-07-24T05:05:07.726Z,5.97
2023-07-24T05:07:35.105Z,6.22
2023-07-24T05:10:02.586Z,6.47
2023-07-24T05:12:30.089Z,5.60
2023-07-24T05:14:57.439Z,5.57
2023-07-24T05:17:24.809Z,5.72
2023-07-24T05:19:52.171Z,5.85
2023-07-24T05:22:19.542Z,5.55
2023-07-24T05:24:46.983Z,5.38
2023-07-24T05:27:16.967Z,5.75
2023-07-24T05:29:44.659Z,6.10
2023-07-24T05:32:12.087Z,6.53
2023-07-24T05:34:39.477Z,6.20
2023-07-24T05:37:07.172Z,7.00
2023-07-24T05:39:34.536Z,5.70
2023-07-24T05:42:01.949Z,5.40
2023-07-24T05:44:29.360Z,6.38
2023-07-24T05:46:56.747Z,6.15
2023-07-24T05:49:24.189Z,5.55
2023-07-24T05:51:53.183Z,6.40
2023-07-24T05:54:20.597Z,6.72
2023-07-24T05:56:48.027Z,6.05
2023-07-24T05:59:15.570Z,6.78
2023-07-24T06:01:42.929Z,5.63
2023-07-24T06:04:10.428Z,5.80
2023-07-24T06:06:37.854Z,5.40
2023-07-24T06:09:05.236Z,5.40
2023-07-24T06:11:32.659Z,5.60
2023-07-24T06:14:00.130Z,6.07
2023-07-24T06:16:27.800Z,5.85
2023-07-24T06:18:55.592Z,5.53
2023-07-24T06:21:22.984Z,5.38
2023-07-24T06:23:50.369Z,5.60
2023-07-24T06:26:17.785Z,5.38
2023-07-24T06:28:45.232Z,6.43
2023-07-24T06:31:12.662Z,4.82
2023-07-24T06:33:40.065Z,4.97
2023-07-24T06:36:11.518Z,4.68
2023-07-24T06:41:06.179Z,6.72
2023-07-24T06:43:33.542Z,6.00
2023-07-24T06:46:01.186Z,5.63
2023-07-24T06:48:28.655Z,5.40
2023-07-24T06:50:56.100Z,5.32
2023-07-24T06:53:23.517Z,5.38
2023-07-24T06:55:50.899Z,5.10
2023-07-24T06:58:18.240Z,5.03
2023-07-24T07:00:45.716Z,5.13
2023-07-24T07:03:13.460Z,4.93
2023-07-24T07:05:40.904Z,5.20
2023-07-24T07:08:08.255Z,5.18
2023-07-24T07:10:35.674Z,4.90
2023-07-24T07:13:03.085Z,5.30
2023-07-24T07:15:30.525Z,7.18
2023-07-24T07:17:57.964Z,5.78
2023-07-24T07:20:25.469Z,5.70
2023-07-24T07:22:52.906Z,6.60
2023-07-24T07:25:20.233Z,5.28
2023-07-24T07:27:47.646Z,5.45
2023-07-24T07:30:15.067Z,5.80
2023-07-24T07:32:42.912Z,5.53
2023-07-24T07:35:10.273Z,5.05
2023-07-24T07:37:37.937Z,5.38
2023-07-24T07:40:05.946Z,6.38
2023-07-24T07:42:33.427Z,7.05
2023-07-24T07:45:00.836Z,5.32
2023-07-24T07:47:28.283Z,5.25
2023-07-24T07:49:55.657Z,5.70
2023-07-24T07:52:23.545Z,5.65
2023-07-24T07:54:51.202Z,6.53
2023-07-24T07:57:18.599Z,5.78
2023-07-24T07:59:45.916Z,5.57
2023-07-24T08:02:13.548Z,5.95
2023-07-24T08:04:41.297Z,5.38
2023-07-24T08:07:08.689Z,6.20
2023-07-24T08:09:37.098Z,6.22
2023-07-24T08:12:05.748Z,6.03
2023-07-24T08:14:35.111Z,5.90
2023-07-24T08:17:02.526Z,5.00
2023-07-24T08:19:30.864Z,5.03
2023-07-24T08:21:58.246Z,4.90
2023-07-24T08:24:25.848Z,5.05
2023-07-24T08:26:53.185Z,5.20
2023-07-24T08:29:20.628Z,5.32
2023-07-24T08:31:48.260Z,4.95
2023-07-24T08:34:15.780Z,5.97
2023-07-24T08:36:43.112Z,5.50
2023-07-24T08:39:10.492Z,4.80
2023-07-24T08:41:40.872Z,5.50
2023-07-24T08:44:11.374Z,5.07
2023-07-24T08:46:42.150Z,4.85
2023-07-24T08:49:15.886Z,4.47
2023-07-24T08:51:43.507Z,4.70
2023-07-24T08:54:11.080Z,4.20
2023-07-24T08:56:40.401Z,4.15
2023-07-24T08:59:07.896Z,4.43
2023-07-24T09:01:35.299Z,4.47
2023-07-24T09:04:02.816Z,4.80
2023-07-24T09:06:30.730Z,4.30
2023-07-24T09:08:58.408Z,4.70
2023-07-24T09:11:25.842Z,4.30
2023-07-24T09:13:55.310Z,4.63
2023-07-24T09:16:27.220Z,4.55
2023-07-24T09:21:32.407Z,4.00
2023-07-24T09:24:10.391Z,4.90
2023-07-24T09:26:47.780Z,4.72
2023-07-24T09:29:15.152Z,4.60
2023-07-24T09:31:42.644Z,4.90
2023-07-24T09:34:16.903Z,5.07
2023-07-24T09:36:45.191Z,5.13
2023-07-24T09:39:13.100Z,5.00
2023-07-24T09:41:41.825Z,5.07
2023-07-24T09:44:09.413Z,4.60
2023-07-24T09:46:45.697Z,5.13
2023-07-24T09:49:15.109Z,5.10
2023-07-24T09:51:45.561Z,4.80
2023-07-24T09:54:17.647Z,5.00
2023-07-24T09:56:53.446Z,5.35
2023-07-24T09:59:23.225Z,5.13
2023-07-24T10:01:50.642Z,4.72
2023-07-24T10:04:18.175Z,4.85
2023-07-24T10:06:46.029Z,4.95
2023-07-24T10:09:13.414Z,4.72
2023-07-24T10:11:40.774Z,4.20
2023-07-24T10:14:08.316Z,4.07
2023-07-24T10:16:35.727Z,3.65
2023-07-24T10:19:03.198Z,3.72
2023-07-24T10:21:30.902Z,3.75
2023-07-24T10:24:01.867Z,3.80
2023-07-24T10:26:29.341Z,4.00
2023-07-24T10:28:56.728Z,3.67
2023-07-24T10:31:27.703Z,4.05
2023-07-24T10:33:56.465Z,4.22
2023-07-24T10:36:25.391Z,4.10
2023-07-24T10:38:56.666Z,4.15
2023-07-24T10:41:24.258Z,3.65
2023-07-24T10:43:53.129Z,4.13
2023-07-24T10:46:21.754Z,4.03
2023-07-24T10:48:50.225Z,3.90
2023-07-24T10:51:17.911Z,4.05
2023-07-24T10:53:49.242Z,4.05
2023-07-24T10:56:17.205Z,4.03
2023-07-24T10:58:44.894Z,4.43
2023-07-24T11:01:12.541Z,4.60
2023-07-24T11:03:41.707Z,4.45
2023-07-24T11:06:19.989Z,4.60
2023-07-24T11:08:57.581Z,4.22
2023-07-24T11:11:31.152Z,4.07
2023-07-24T11:13:59.161Z,4.05
2023-07-24T11:16:26.593Z,4.13
2023-07-24T11:18:55.501Z,3.92
2023-07-24T11:21:26.052Z,4.30
2023-07-24T11:23:54.394Z,4.10
2023-07-24T11:26:25.532Z,4.20
2023-07-24T11:28:53.492Z,3.97
2023-07-24T11:31:21.576Z,4.07
2023-07-24T11:33:53.640Z,3.92
2023-07-24T11:36:21.221Z,3.80
2023-07-24T11:38:48.967Z,4.32
2023-07-24T11:41:18.111Z,3.80
2023-07-24T11:43:49.139Z,4.22
2023-07-24T11:46:26.395Z,4.60
2023-07-24T11:48:56.754Z,4.43
2023-07-24T11:51:25.763Z,4.10
2023-07-24T11:53:53.322Z,3.80
2023-07-24T11:56:22.475Z,4.30
2023-07-24T11:58:49.903Z,4.07
2023-07-24T12:01:17.278Z,4.50
2023-07-24T12:03:44.950Z,4.80
2023-07-24T12:06:18.722Z,4.15
2023-07-24T12:08:46.227Z,4.10
2023-07-24T12:11:19.838Z,4.00
2023-07-24T12:13:47.458Z,4.00
2023-07-24T12:16:14.862Z,3.92
2023-07-24T12:18:42.331Z,3.90
2023-07-24T12:21:09.680Z,3.60
2023-07-24T12:23:37.049Z,3.28
2023-07-24T12:26:04.468Z,3.55
2023-07-24T12:28:31.813Z,3.97
2023-07-24T12:30:59.198Z,3.63
2023-07-24T12:33:26.603Z,3.97
2023-07-24T12:35:54.302Z,3.42
2023-07-24T12:38:21.687Z,3.40
2023-07-24T12:40:49.348Z,3.35
2023-07-24T12:43:17.071Z,3.70
2023-07-24T12:45:44.412Z,3.22
2023-07-24T12:48:12.022Z,3.35
2023-07-24T12:50:39.448Z,3.40
2023-07-24T12:53:09.830Z,3.20
2023-07-24T12:55:41.529Z,3.40
2023-07-24T12:58:08.925Z,3.30
2023-07-24T13:00:39.112Z,3.27
2023-07-24T13:03:06.737Z,3.88
2023-07-24T13:05:34.730Z,3.50
2023-07-24T13:08:02.214Z,3.30
2023-07-24T13:10:29.539Z,3.05
2023-07-24T13:12:57.063Z,3.10
2023-07-24T13:15:24.395Z,3.13
2023-07-24T13:17:51.788Z,3.13
2023-07-24T13:20:19.362Z,3.15
2023-07-24T13:22:48.061Z,3.20
2023-07-24T13:25:15.754Z,3.78
2023-07-24T13:27:43.186Z,3.20
2023-07-24T13:30:10.760Z,3.20
2023-07-24T13:32:38.215Z,3.20
2023-07-24T13:35:05.829Z,3.33
2023-07-24T13:37:33.218Z,3.38
2023-07-24T13:40:00.587Z,3.08
2023-07-24T13:42:27.967Z,3.30
2023-07-24T13:44:55.290Z,3.00
2023-07-24T13:47:22.777Z,2.78
2023-07-24T13:49:50.188Z,3.10
2023-07-24T13:52:17.684Z,3.35
2023-07-24T13:54:45.061Z,3.13
2023-07-24T13:57:12.436Z,2.90
2023-07-24T13:59:40.585Z,3.13
2023-07-24T14:02:08.477Z,2.78
2023-07-24T14:04:35.922Z,3.30
2023-07-24T14:07:03.414Z,3.08
2023-07-24T14:09:32.130Z,3.30
2023-07-24T14:11:59.557Z,2.90
2023-07-24T14:14:27.868Z,3.20
2023-07-24T14:16:55.270Z,3.50
2023-07-24T14:19:24.646Z,3.17
2023-07-24T14:21:52.317Z,3.20
2023-07-24T14:24:19.944Z,3.22
2023-07-24T14:26:47.908Z,3.50
2023-07-24T14:29:18.304Z,3.25
2023-07-24T14:31:45.911Z,2.90
2023-07-24T14:34:14.155Z,3.00
2023-07-24T14:36:41.579Z,3.42
2023-07-24T14:39:09.084Z,3.25
2023-07-24T14:41:36.692Z,3.10
2023-07-24T14:44:04.227Z,3.08
2023-07-24T14:46:31.909Z,3.47
2023-07-24T14:48:59.341Z,3.30
2023-07-24T14:51:27.293Z,3.50
2023-07-24T14:53:55.076Z,3.30
2023-07-24T14:56:22.687Z,3.20
2023-07-24T14:58:50.062Z,3.13
2023-07-24T15:01:17.570Z,3.30
2023-07-24T15:03:45.551Z,3.20
2023-07-24T15:06:13.352Z,3.10
2023-07-24T15:08:40.725Z,3.33
2023-07-24T15:11:08.163Z,2.85
2023-07-24T15:13:35.588Z,3.47
2023-07-24T15:16:03.314Z,3.00
2023-07-24T15:18:30.782Z,3.30
2023-07-24T15:20:59.139Z,2.90
2023-07-24T15:23:26.656Z,2.80
2023-07-24T15:25:54.027Z,3.38
2023-07-24T15:28:21.352Z,3.00
2023-07-24T15:30:49.514Z,3.03
2023-07-24T15:33:17.045Z,2.72
2023-07-24T15:35:44.673Z,3.10
2023-07-24T15:38:12.242Z,2.95
2023-07-24T15:40:40.839Z,3.90
2023-07-24T15:43:08.264Z,3.08
2023-07-24T15:45:35.881Z,3.55
2023-07-24T15:48:03.392Z,3.00
2023-07-24T15:50:31.186Z,3.40
2023-07-24T15:52:58.609Z,3.70
2023-07-24T15:55:26.099Z,3.20
2023-07-24T15:57:53.511Z,3.00
2023-07-24T16:00:23.892Z,3.13
2023-07-24T16:02:51.392Z,3.40
2023-07-24T16:05:23.107Z,3.30
2023-07-24T16:07:51.224Z,3.25
2023-07-24T16:10:18.726Z,3.55
2023-07-24T16:12:46.446Z,3.08
2023-07-24T16:15:13.975Z,3.40
2023-07-24T16:18:05.567Z,2.95
2023-07-24T16:20:29.399Z,3.20
2023-07-24T16:22:56.811Z,2.90
2023-07-24T16:25:24.275Z,2.90
2023-07-24T16:27:55.416Z,2.88
2023-07-24T16:30:23.237Z,2.90
2023-07-24T16:32:50.949Z,2.90
2023-07-24T16:35:18.504Z,3.22
2023-07-24T16:37:46.106Z,3.05
2023-07-24T16:40:13.663Z,3.13
2023-07-24T16:42:41.070Z,3.03
2023-07-24T16:45:11.210Z,2.83
2023-07-24T16:47:56.401Z,3.13
2023-07-24T16:50:26.401Z,3.10
2023-07-24T16:52:53.843Z,2.95
2023-07-24T16:55:22.408Z,3.20
2023-07-24T16:57:51.102Z,3.10
2023-07-24T17:00:19.634Z,3.08
2023-07-24T17:02:48.835Z,2.95
2023-07-24T17:05:16.356Z,2.85
2023-07-24T17:07:44.870Z,3.40
2023-07-24T17:10:12.565Z,3.05
2023-07-24T17:12:40.291Z,2.97
2023-07-24T17:15:08.106Z,2.80
2023-07-24T17:17:35.590Z,2.92
2023-07-24T17:20:03.580Z,2.97
2023-07-24T17:22:31.000Z,3.28
2023-07-24T17:24:58.942Z,3.13
2023-07-24T17:27:26.756Z,3.30
2023-07-24T17:29:55.347Z,3.40
2023-07-24T17:32:25.547Z,2.80
2023-07-24T17:34:52.957Z,3.38
2023-07-24T17:37:36.310Z,3.30
2023-07-24T17:40:06.160Z,3.30
2023-07-24T17:42:33.548Z,3.38
2023-07-24T17:45:00.932Z,3.25
2023-07-24T17:47:28.287Z,2.97
2023-07-24T17:50:06.421Z,2.90
2023-07-24T17:52:35.258Z,3.00
2023-07-24T17:55:02.598Z,2.65
2023-07-24T17:57:30.136Z,3.00
2023-07-24T17:59:57.543Z,3.05
2023-07-24T18:02:25.265Z,2.65
2023-07-24T18:04:52.589Z,2.88
2023-07-24T18:07:20.030Z,3.13
2023-07-24T18:09:47.689Z,2.97
2023-07-24T18:12:15.611Z,2.92
2023-07-24T18:14:43.086Z,3.30
2023-07-24T18:17:10.597Z,3.40
2023-07-24T18:19:37.982Z,2.97
2023-07-24T18:22:05.732Z,3.00
2023-07-24T18:24:33.127Z,3.00
2023-07-24T18:27:00.519Z,3.17
2023-07-24T18:29:27.961Z,3.15
2023-07-24T18:31:56.189Z,2.97
2023-07-24T18:34:24.172Z,3.13
2023-07-24T18:36:51.620Z,2.88
2023-07-24T18:39:19.059Z,2.80
2023-07-24T18:41:47.785Z,3.25
2023-07-24T18:44:15.591Z,2.97
2023-07-24T18:46:43.122Z,2.70
2023-07-24T18:49:10.536Z,3.35
2023-07-24T18:51:37.994Z,3.10
2023-07-24T18:54:05.366Z,3.15
2023-07-24T18:56:32.740Z,3.10
2023-07-24T18:59:00.129Z,3.13
2023-07-24T19:01:27.697Z,2.85
2023-07-24T19:03:55.095Z,3.58
2023-07-24T19:06:22.579Z,3.20
2023-07-24T19:08:50.380Z,2.92
2023-07-24T19:11:18.195Z,3.70
2023-07-24T19:13:45.546Z,2.85
2023-07-24T19:16:13.058Z,3.40
2023-07-24T19:18:41.803Z,3.42
2023-07-24T19:21:09.241Z,2.90
2023-07-24T19:23:36.770Z,2.88
2023-07-24T19:26:04.164Z,3.13
2023-07-24T19:28:31.548Z,3.63
2023-07-24T19:30:59.114Z,3.65
2023-07-24T19:33:27.196Z,3.55
2023-07-24T19:36:01.919Z,3.60
2023-07-24T19:38:29.633Z,3.67
2023-07-24T19:41:01.246Z,3.42
2023-07-24T19:43:28.884Z,3.15
2023-07-24T19:45:56.287Z,3.42
2023-07-24T19:48:25.572Z,4.18
2023-07-24T19:50:57.405Z,3.83
2023-07-24T19:53:26.648Z,3.45
2023-07-24T19:55:54.875Z,3.17
2023-07-24T19:58:32.866Z,3.30
2023-07-24T20:01:01.024Z,3.40
2023-07-24T20:03:29.235Z,3.90
2023-07-24T20:05:58.020Z,3.28
2023-07-24T20:08:25.912Z,3.58
2023-07-24T20:10:53.357Z,3.60
2023-07-24T20:13:20.823Z,3.45
2023-07-24T20:15:48.381Z,2.80
2023-07-24T20:18:15.840Z,2.85
2023-07-24T20:20:49.540Z,3.08
2023-07-24T20:23:17.424Z,3.17
2023-07-24T20:25:45.529Z,2.97
2023-07-24T20:28:13.555Z,2.92
2023-07-24T20:30:41.014Z,3.03
2023-07-24T20:33:08.476Z,2.90
2023-07-24T20:35:35.903Z,3.00
2023-07-24T20:38:05.248Z,2.50
2023-07-24T20:40:36.108Z,3.08
2023-07-24T20:43:05.515Z,2.55
2023-07-24T20:45:33.014Z,2.95
2023-07-24T20:48:01.478Z,3.33
2023-07-24T20:50:28.902Z,3.10
2023-07-24T20:52:56.286Z,3.00
2023-07-24T20:55:23.676Z,2.60
2023-07-24T20:57:51.077Z,2.78
2023-07-24T21:00:18.413Z,3.00
2023-07-24T21:02:45.866Z,2.90
2023-07-24T21:05:13.299Z,3.10
2023-07-24T21:07:42.448Z,2.83
2023-07-24T21:10:12.756Z,2.65
2023-07-24T21:12:46.341Z,2.78
2023-07-24T21:15:14.058Z,3.10
2023-07-24T21:17:41.492Z,2.83
2023-07-24T21:20:09.382Z,3.28
2023-07-24T21:22:36.865Z,2.85
2023-07-24T21:25:04.363Z,2.85
2023-07-24T21:27:31.681Z,3.20
2023-07-24T21:29:59.061Z,2.80
2023-07-24T21:32:26.466Z,2.70
2023-07-24T21:34:54.329Z,2.88
2023-07-24T21:37:22.143Z,2.58
2023-07-24T21:39:49.536Z,3.08
2023-07-24T21:42:16.845Z,2.85
2023-07-24T21:44:44.292Z,2.80
2023-07-24T21:47:12.346Z,3.03
2023-07-24T21:49:39.807Z,3.10
2023-07-24T21:52:07.380Z,3.28
2023-07-24T21:54:34.714Z,3.30
2023-07-24T21:57:02.196Z,3.30
2023-07-24T21:59:29.989Z,3.05
2023-07-24T22:01:57.616Z,3.00
2023-07-24T22:04:25.103Z,2.90
2023-07-24T22:06:52.496Z,3.00
2023-07-24T22:09:19.990Z,3.05
2023-07-24T22:11:47.890Z,2.83
2023-07-24T22:14:16.586Z,3.08
2023-07-24T22:16:43.991Z,2.65
2023-07-24T22:19:11.415Z,3.10
2023-07-24T22:21:38.852Z,3.08
2023-07-24T22:24:06.431Z,3.17
2023-07-24T22:26:33.821Z,2.90
2023-07-24T22:29:01.361Z,2.97
2023-07-24T22:31:28.921Z,2.72
2023-07-24T22:33:56.434Z,2.88
2023-07-24T22:36:23.874Z,2.78
2023-07-24T22:38:51.766Z,2.75
2023-07-24T22:41:19.522Z,3.10
2023-07-24T22:43:47.142Z,3.10
2023-07-24T22:46:14.586Z,3.03
2023-07-24T22:48:42.228Z,3.10
2023-07-24T22:51:09.670Z,2.90
2023-07-24T22:53:37.053Z,2.95
2023-07-24T22:56:08.887Z,2.70
2023-07-24T22:58:56.080Z,2.90
2023-07-24T23:01:27.142Z,2.88
2023-07-24T23:03:54.630Z,3.25
2023-07-24T23:06:22.120Z,2.80
2023-07-24T23:08:49.450Z,3.00
2023-07-24T23:11:16.806Z,3.40
2023-07-24T23:13:44.743Z,3.00
2023-07-24T23:16:12.607Z,2.55
2023-07-24T23:18:42.069Z,2.85
2023-07-24T23:21:09.405Z,2.72
2023-07-24T23:23:36.749Z,2.97
2023-07-24T23:26:04.790Z,2.83
2023-07-24T23:28:32.133Z,2.72
2023-07-24T23:31:02.693Z,3.08
2023-07-24T23:33:30.062Z,3.00
2023-07-24T23:35:57.430Z,2.90
2023-07-24T23:38:24.972Z,2.78
2023-07-24T23:40:59.095Z,2.80
2023-07-24T23:43:26.742Z,2.92
2023-07-24T23:45:54.517Z,2.70
2023-07-24T23:48:23.401Z,2.60
2023-07-24T23:50:51.144Z,2.65
2023-07-24T23:53:18.894Z,2.95
2023-07-24T23:55:46.600Z,2.50
2023-07-24T23:58:14.477Z,2.63
